createdAt,value
2018-07-30T00:03:14.951Z,0
2018-07-30T00:04:31.004Z,0
2018-07-30T00:05:46.963Z,1
2018-07-30T00:07:02.962Z,1
2018-07-30T00:08:18.949Z,1
2018-07-30T00:09:34.932Z,1
2018-07-30T00:10:50.900Z,1
2018-07-30T00:12:06.859Z,1
2018-07-30T00:13:22.773Z,1
2018-07-30T00:14:38.754Z,1
2018-07-30T00:15:54.610Z,1
2018-07-30T00:17:10.505Z,1
2018-07-30T00:18:26.372Z,1
2018-07-30T00:19:42.277Z,1
2018-07-30T00:20:58.176Z,1
2018-07-30T00:22:14.085Z,1
2018-07-30T00:23:29.968Z,1
2018-07-30T00:24:45.868Z,1
2018-07-30T00:26:01.723Z,1
2018-07-30T00:27:17.654Z,1
2018-07-30T00:28:33.506Z,1
2018-07-30T00:29:49.380Z,1
2018-07-30T00:31:05.276Z,1
2018-07-30T00:32:21.171Z,1
2018-07-30T00:33:37.077Z,1
2018-07-30T00:34:52.984Z,1
2018-07-30T00:36:08.876Z,1
2018-07-30T00:37:24.764Z,1
2018-07-30T00:38:40.636Z,1
2018-07-30T00:39:56.505Z,1
2018-07-30T00:41:12.354Z,1
2018-07-30T00:42:28.254Z,1
2018-07-30T00:43:44.103Z,1
2018-07-30T00:44:59.967Z,1
2018-07-30T00:46:15.847Z,1
2018-07-30T00:47:31.751Z,1
2018-07-30T00:48:47.650Z,1
2018-07-30T00:50:03.539Z,1
2018-07-30T00:51:19.473Z,1
2018-07-30T00:52:35.351Z,1
2018-07-30T00:53:51.211Z,1
2018-07-30T00:55:07.171Z,1
2018-07-30T00:56:23.058Z,1
2018-07-30T00:57:39.011Z,1
2018-07-30T00:58:54.928Z,1
2018-07-30T01:00:10.852Z,1
2018-07-30T01:01:26.754Z,1
2018-07-30T01:02:42.669Z,1
2018-07-30T01:03:58.672Z,0
2018-07-30T01:05:14.547Z,0
2018-07-30T01:06:30.436Z,0
2018-07-30T01:07:46.318Z,1
2018-07-30T01:09:02.258Z,1
2018-07-30T01:10:18.283Z,1
2018-07-30T01:11:34.163Z,0
2018-07-30T01:12:50.048Z,1
2018-07-30T01:14:05.919Z,0
2018-07-30T01:15:21.833Z,1
2018-07-30T01:16:37.705Z,1
2018-07-30T01:17:53.573Z,1
2018-07-30T01:19:09.447Z,0
2018-07-30T01:20:25.337Z,1
2018-07-30T01:21:41.258Z,1
2018-07-30T01:22:57.040Z,1
2018-07-30T01:24:12.914Z,1
2018-07-30T01:25:28.806Z,0
2018-07-30T01:26:44.706Z,1
2018-07-30T01:28:00.623Z,0
2018-07-30T01:29:16.515Z,1
2018-07-30T01:30:32.399Z,1
2018-07-30T01:31:48.278Z,1
2018-07-30T01:33:04.153Z,0
2018-07-30T01:34:20.040Z,0
2018-07-30T01:35:35.926Z,0
2018-07-30T01:36:51.850Z,0
2018-07-30T01:38:07.708Z,0
2018-07-30T01:39:23.615Z,0
2018-07-30T01:40:39.458Z,0
2018-07-30T01:41:55.352Z,1
2018-07-30T01:43:11.209Z,1
2018-07-30T01:44:27.108Z,0
2018-07-30T01:45:42.994Z,0
2018-07-30T01:46:58.910Z,0
2018-07-30T01:48:14.791Z,0
2018-07-30T01:49:30.681Z,0
2018-07-30T01:50:46.553Z,0
2018-07-30T01:52:02.405Z,0
2018-07-30T01:53:18.281Z,0
2018-07-30T01:54:34.149Z,0
2018-07-30T01:55:50.041Z,0
2018-07-30T01:57:05.933Z,0
2018-07-30T01:58:21.815Z,0
2018-07-30T01:59:37.719Z,0
2018-07-30T02:00:53.680Z,0
2018-07-30T02:02:09.567Z,0
2018-07-30T02:03:25.501Z,0
2018-07-30T02:04:41.444Z,0
2018-07-30T02:05:56.479Z,0
2018-07-30T02:07:12.418Z,0
2018-07-30T02:08:28.391Z,0
2018-07-30T02:11:25.177Z,0
2018-07-30T02:12:41.092Z,0
2018-07-30T02:13:56.897Z,0
2018-07-30T02:15:12.809Z,0
2018-07-30T02:16:28.703Z,0
2018-07-30T02:17:44.603Z,0
2018-07-30T02:19:00.454Z,0
2018-07-30T02:20:16.335Z,0
2018-07-30T02:21:32.302Z,0
2018-07-30T02:22:48.131Z,0
2018-07-30T02:24:04.798Z,0
2018-07-30T02:25:20.710Z,0
2018-07-30T02:26:36.584Z,0
2018-07-30T02:27:52.473Z,0
2018-07-30T02:29:08.408Z,0
2018-07-30T02:30:24.284Z,0
2018-07-30T02:31:40.213Z,0
2018-07-30T02:32:56.096Z,0
2018-07-30T02:34:12.003Z,0
2018-07-30T02:35:27.891Z,0
2018-07-30T02:36:43.784Z,0
2018-07-30T02:39:40.567Z,0
2018-07-30T02:40:56.459Z,0
2018-07-30T02:42:12.335Z,0
2018-07-30T02:43:29.201Z,0
2018-07-30T02:46:26.922Z,0
2018-07-30T02:47:42.793Z,0
2018-07-30T02:48:59.668Z,0
2018-07-30T02:50:15.745Z,0
2018-07-30T02:51:31.593Z,0
2018-07-30T02:52:47.484Z,0
2018-07-30T02:54:03.365Z,0
2018-07-30T02:55:19.269Z,0
2018-07-30T02:56:35.135Z,0
2018-07-30T02:57:50.990Z,0
2018-07-30T02:59:06.971Z,0
2018-07-30T03:02:03.694Z,0
2018-07-30T03:03:19.673Z,0
2018-07-30T03:04:35.624Z,0
2018-07-30T03:05:51.565Z,0
2018-07-30T03:07:07.502Z,0
2018-07-30T03:08:23.424Z,0
2018-07-30T03:11:20.107Z,0
2018-07-30T03:12:36.024Z,1
2018-07-30T03:13:51.908Z,1
2018-07-30T03:15:07.823Z,1
2018-07-30T03:16:23.715Z,0
2018-07-30T03:17:39.651Z,0
2018-07-30T03:18:55.525Z,1
2018-07-30T03:20:11.395Z,1
2018-07-30T03:21:27.303Z,1
2018-07-30T03:22:43.208Z,1
2018-07-30T03:23:59.089Z,1
2018-07-30T03:25:14.977Z,2
2018-07-30T03:26:30.887Z,2
2018-07-30T03:27:46.795Z,2
2018-07-30T03:29:02.675Z,2
2018-07-30T03:30:18.541Z,3
2018-07-30T03:31:34.434Z,4
2018-07-30T03:32:50.314Z,4
2018-07-30T03:34:06.164Z,5
2018-07-30T03:35:22.068Z,6
2018-07-30T03:36:37.984Z,7
2018-07-30T03:37:53.861Z,9
2018-07-30T03:40:50.194Z,14
2018-07-30T03:42:06.096Z,17
2018-07-30T03:43:21.995Z,21
2018-07-30T03:44:37.892Z,26
2018-07-30T03:45:53.777Z,30
2018-07-30T03:47:09.703Z,37
2018-07-30T03:48:25.621Z,44
2018-07-30T03:49:41.483Z,52
2018-07-30T03:50:57.386Z,61
2018-07-30T03:52:13.269Z,72
2018-07-30T03:53:29.159Z,84
2018-07-30T03:54:45.084Z,96
2018-07-30T03:56:00.988Z,110
2018-07-30T03:57:16.933Z,124
2018-07-30T03:58:32.841Z,138
2018-07-30T03:59:48.749Z,153
2018-07-30T04:01:04.684Z,169
2018-07-30T04:02:20.591Z,185
2018-07-30T04:03:36.467Z,202
2018-07-30T04:04:52.404Z,220
2018-07-30T04:06:08.314Z,237
2018-07-30T04:07:24.189Z,256
2018-07-30T04:08:40.142Z,275
2018-07-30T04:09:56.036Z,293
2018-07-30T04:11:11.935Z,312
2018-07-30T04:12:27.898Z,331
2018-07-30T04:13:43.834Z,350
2018-07-30T04:14:59.797Z,367
2018-07-30T04:16:15.693Z,385
2018-07-30T04:17:31.602Z,404
2018-07-30T04:18:47.491Z,425
2018-07-30T04:20:03.534Z,447
2018-07-30T04:21:19.442Z,471
2018-07-30T04:22:35.368Z,501
2018-07-30T04:23:51.233Z,535
2018-07-30T04:25:07.365Z,569
2018-07-30T04:26:23.240Z,599
2018-07-30T04:27:39.134Z,628
2018-07-30T04:28:55.040Z,662
2018-07-30T04:30:11.001Z,697
2018-07-30T04:33:07.538Z,759
2018-07-30T04:34:23.425Z,783
2018-07-30T04:35:39.323Z,807
2018-07-30T04:36:55.221Z,830
2018-07-30T04:38:11.120Z,853
2018-07-30T04:39:27.048Z,875
2018-07-30T04:40:42.979Z,896
2018-07-30T04:41:58.878Z,919
2018-07-30T04:43:14.808Z,940
2018-07-30T04:44:30.763Z,961
2018-07-30T04:45:46.712Z,981
2018-07-30T04:47:02.647Z,1001
2018-07-30T04:48:19.329Z,1021
2018-07-30T04:49:35.256Z,1041
2018-07-30T04:50:51.208Z,1058
2018-07-30T04:53:48.075Z,1102
2018-07-30T04:55:03.997Z,1120
2018-07-30T04:56:19.927Z,1140
2018-07-30T04:57:35.892Z,1157
2018-07-30T04:58:51.774Z,1176
2018-07-30T05:00:07.661Z,1193
2018-07-30T05:01:23.545Z,1209
2018-07-30T05:02:39.434Z,1230
2018-07-30T05:03:55.363Z,1243
2018-07-30T05:05:11.225Z,1260
2018-07-30T05:06:27.113Z,1277
2018-07-30T05:07:43.063Z,1292
2018-07-30T05:08:58.951Z,1308
2018-07-30T05:10:14.853Z,1322
2018-07-30T05:11:30.711Z,1334
2018-07-30T05:12:46.610Z,1349
2018-07-30T05:15:43.267Z,1383
2018-07-30T05:16:59.127Z,1396
2018-07-30T05:18:15.052Z,1411
2018-07-30T05:19:30.940Z,1423
2018-07-30T05:20:46.820Z,1438
2018-07-30T05:22:02.749Z,1450
2018-07-30T05:23:18.679Z,1464
2018-07-30T05:24:34.589Z,1478
2018-07-30T05:25:50.466Z,1490
2018-07-30T05:27:06.344Z,1502
2018-07-30T05:28:22.264Z,1514
2018-07-30T05:29:38.139Z,1528
2018-07-30T05:30:54.047Z,1544
2018-07-30T05:32:10.023Z,1555
2018-07-30T05:33:25.953Z,1566
2018-07-30T05:34:41.848Z,1578
2018-07-30T05:35:57.703Z,1588
2018-07-30T05:37:13.630Z,1608
2018-07-30T05:38:29.479Z,1613
2018-07-30T05:39:45.356Z,1624
2018-07-30T05:41:01.264Z,1640
2018-07-30T05:42:17.117Z,1650
2018-07-30T05:43:33.014Z,1661
2018-07-30T05:44:48.883Z,1708
2018-07-30T05:46:04.763Z,1704
2018-07-30T05:47:20.698Z,1698
2018-07-30T05:48:36.587Z,1710
2018-07-30T05:49:52.434Z,1721
2018-07-30T05:51:08.298Z,1736
2018-07-30T05:52:24.192Z,1750
2018-07-30T05:53:40.117Z,1761
2018-07-30T05:54:56.028Z,1774
2018-07-30T05:56:11.884Z,1791
2018-07-30T05:57:27.807Z,1802
2018-07-30T05:58:43.699Z,1814
2018-07-30T05:59:59.584Z,1826
2018-07-30T06:01:15.473Z,1840
2018-07-30T06:02:31.339Z,1851
2018-07-30T06:03:47.249Z,1851
2018-07-30T06:05:03.116Z,1869
2018-07-30T06:06:18.993Z,1881
2018-07-30T06:07:34.952Z,1893
2018-07-30T06:08:50.851Z,1904
2018-07-30T06:10:06.725Z,1915
2018-07-30T06:11:22.624Z,1949
2018-07-30T06:12:38.497Z,1934
2018-07-30T06:13:54.426Z,1953
2018-07-30T06:15:10.339Z,1955
2018-07-30T06:16:26.292Z,1967
2018-07-30T06:17:42.204Z,1970
2018-07-30T06:18:58.115Z,1984
2018-07-30T06:20:13.982Z,1991
2018-07-30T06:21:29.859Z,1999
2018-07-30T06:22:45.785Z,2014
2018-07-30T06:24:01.681Z,2025
2018-07-30T06:25:17.557Z,2037
2018-07-30T06:26:33.588Z,2044
2018-07-30T06:27:49.364Z,2054
2018-07-30T06:29:05.272Z,2069
2018-07-30T06:30:21.176Z,2085
2018-07-30T06:31:37.036Z,2096
2018-07-30T06:32:53.024Z,2109
2018-07-30T06:34:08.948Z,2123
2018-07-30T06:35:24.884Z,2138
2018-07-30T06:36:40.753Z,2157
2018-07-30T06:37:56.634Z,2169
2018-07-30T06:39:12.524Z,2180
2018-07-30T06:40:28.437Z,2200
2018-07-30T06:41:44.334Z,2206
2018-07-30T06:43:00.224Z,2226
2018-07-30T06:44:16.329Z,2224
2018-07-30T06:45:32.215Z,2235
2018-07-30T06:46:48.108Z,2245
2018-07-30T06:48:04.062Z,2258
2018-07-30T06:49:19.870Z,2265
2018-07-30T06:50:35.779Z,2271
2018-07-30T06:53:32.590Z,2280
2018-07-30T06:54:48.483Z,2296
2018-07-30T06:56:04.384Z,2309
2018-07-30T06:57:20.381Z,2325
2018-07-30T06:58:36.265Z,2348
2018-07-30T06:59:52.133Z,2367
2018-07-30T07:01:08.018Z,2395
2018-07-30T07:02:23.924Z,2426
2018-07-30T07:03:39.813Z,2456
2018-07-30T07:04:55.751Z,2503
2018-07-30T07:06:11.643Z,2538
2018-07-30T07:07:27.515Z,2569
2018-07-30T07:08:43.385Z,2623
2018-07-30T07:09:59.290Z,2669
2018-07-30T07:11:15.189Z,2723
2018-07-30T07:12:31.104Z,2778
2018-07-30T07:13:46.958Z,2819
2018-07-30T07:15:02.876Z,2856
2018-07-30T07:16:18.785Z,2891
2018-07-30T07:17:34.680Z,2920
2018-07-30T07:18:50.591Z,2950
2018-07-30T07:20:06.545Z,2951
2018-07-30T07:21:22.565Z,2985
2018-07-30T07:22:38.452Z,3006
2018-07-30T07:23:54.397Z,3012
2018-07-30T07:25:10.337Z,3034
2018-07-30T07:26:26.264Z,3049
2018-07-30T07:27:42.129Z,3062
2018-07-30T07:28:58.021Z,3077
2018-07-30T07:30:13.924Z,3098
2018-07-30T07:31:29.801Z,3123
2018-07-30T07:32:45.717Z,3118
2018-07-30T07:34:01.625Z,3127
2018-07-30T07:35:17.502Z,3138
2018-07-30T07:36:33.395Z,3177
2018-07-30T07:37:49.281Z,3197
2018-07-30T07:39:05.202Z,3220
2018-07-30T07:40:22.096Z,3228
2018-07-30T07:41:38.145Z,3230
2018-07-30T07:42:54.041Z,3258
2018-07-30T07:44:09.952Z,3262
2018-07-30T07:45:25.825Z,3277
2018-07-30T07:46:41.719Z,3283
2018-07-30T07:47:57.623Z,3301
2018-07-30T07:49:13.587Z,3331
2018-07-30T07:50:29.531Z,3344
2018-07-30T07:51:45.451Z,3365
2018-07-30T07:53:01.358Z,3385
2018-07-30T07:54:17.239Z,3405
2018-07-30T07:55:33.155Z,3425
2018-07-30T07:56:49.000Z,3442
2018-07-30T07:58:04.870Z,3422
2018-07-30T07:59:20.767Z,3451
2018-07-30T08:00:36.659Z,3480
2018-07-30T08:01:52.542Z,3470
2018-07-30T08:03:08.399Z,3475
2018-07-30T08:04:24.260Z,3489
2018-07-30T08:05:40.197Z,3493
2018-07-30T08:06:56.114Z,3501
2018-07-30T08:08:11.989Z,3506
2018-07-30T08:09:27.879Z,3519
2018-07-30T08:10:43.798Z,3532
2018-07-30T08:11:59.725Z,3548
2018-07-30T08:13:15.603Z,3568
2018-07-30T08:14:31.559Z,3570
2018-07-30T08:15:47.447Z,3578
2018-07-30T08:17:03.333Z,3592
2018-07-30T08:18:19.232Z,3590
2018-07-30T08:19:35.139Z,3584
2018-07-30T08:20:51.060Z,3608
2018-07-30T08:22:06.961Z,3620
2018-07-30T08:23:22.888Z,3621
2018-07-30T08:24:38.760Z,3636
2018-07-30T08:25:54.706Z,3629
2018-07-30T08:27:10.585Z,3664
2018-07-30T08:28:26.519Z,3680
2018-07-30T08:29:42.428Z,3694
2018-07-30T08:30:58.331Z,3701
2018-07-30T08:32:14.237Z,3692
2018-07-30T08:33:30.123Z,3729
2018-07-30T08:34:46.040Z,3760
2018-07-30T08:36:01.910Z,3748
2018-07-30T08:37:17.796Z,3757
2018-07-30T08:38:33.758Z,3794
2018-07-30T08:39:49.674Z,3775
2018-07-30T08:41:05.590Z,3802
2018-07-30T08:42:21.604Z,3797
2018-07-30T08:43:37.458Z,3809
2018-07-30T08:44:53.342Z,3797
2018-07-30T08:46:09.254Z,3795
2018-07-30T08:47:25.123Z,3813
2018-07-30T08:48:41.034Z,3831
2018-07-30T08:49:56.915Z,3831
2018-07-30T08:51:12.776Z,3829
2018-07-30T08:52:28.837Z,3844
2018-07-30T08:53:45.752Z,3851
2018-07-30T08:55:01.710Z,3857
2018-07-30T08:56:17.596Z,3858
2018-07-30T08:57:33.508Z,3868
2018-07-30T08:58:49.449Z,3856
2018-07-30T09:00:05.511Z,3882
2018-07-30T09:01:21.408Z,3881
2018-07-30T09:02:37.356Z,3902
2018-07-30T09:03:53.271Z,3916
2018-07-30T09:05:09.210Z,3916
2018-07-30T09:06:25.079Z,3919
2018-07-30T09:07:40.964Z,3916
2018-07-30T09:08:56.853Z,3945
2018-07-30T09:10:12.760Z,3937
2018-07-30T09:11:28.683Z,3953
2018-07-30T09:12:44.645Z,3980
2018-07-30T09:14:00.543Z,3965
2018-07-30T09:15:16.545Z,3973
2018-07-30T09:16:32.447Z,3959
2018-07-30T09:17:48.316Z,3970
2018-07-30T09:19:04.261Z,3967
2018-07-30T09:20:20.163Z,3991
2018-07-30T09:21:36.037Z,3987
2018-07-30T09:22:51.993Z,4003
2018-07-30T09:24:07.968Z,3986
2018-07-30T09:25:23.862Z,3985
2018-07-30T09:26:39.749Z,4019
2018-07-30T09:27:55.672Z,4016
2018-07-30T09:29:11.585Z,4024
2018-07-30T09:30:27.491Z,4073
2018-07-30T09:31:43.412Z,4045
2018-07-30T09:32:59.485Z,4055
2018-07-30T09:34:15.237Z,4067
2018-07-30T09:35:31.176Z,4066
2018-07-30T09:36:47.103Z,4070
2018-07-30T09:38:03.124Z,4080
2018-07-30T09:39:19.100Z,4100
2018-07-30T09:40:34.914Z,4109
2018-07-30T09:41:50.840Z,4101
2018-07-30T09:43:06.788Z,4096
2018-07-30T09:44:22.688Z,4128
2018-07-30T09:45:38.629Z,4115
2018-07-30T09:46:54.529Z,4143
2018-07-30T09:48:10.442Z,4152
2018-07-30T09:49:26.324Z,4127
2018-07-30T09:50:42.368Z,4162
2018-07-30T09:51:58.117Z,4192
2018-07-30T09:53:14.004Z,4191
2018-07-30T09:54:29.940Z,4160
2018-07-30T09:55:45.879Z,4206
2018-07-30T09:57:01.778Z,4218
2018-07-30T09:58:17.721Z,4243
2018-07-30T09:59:33.667Z,4253
2018-07-30T10:00:49.566Z,4221
2018-07-30T10:02:05.458Z,4253
2018-07-30T10:03:21.343Z,4265
2018-07-30T10:04:37.276Z,4267
2018-07-30T10:05:53.254Z,4233
2018-07-30T10:07:09.202Z,4250
2018-07-30T10:08:25.117Z,4255
2018-07-30T10:09:41.058Z,4268
2018-07-30T10:12:37.718Z,4280
2018-07-30T10:13:53.595Z,4265
2018-07-30T10:15:09.526Z,4272
2018-07-30T10:16:25.479Z,4263
2018-07-30T10:17:41.467Z,4321
2018-07-30T10:18:57.304Z,4330
2018-07-30T10:21:54.044Z,4325
2018-07-30T10:23:09.954Z,4330
2018-07-30T10:24:25.870Z,4358
2018-07-30T10:25:41.804Z,4366
2018-07-30T10:26:57.744Z,4369
2018-07-30T10:28:13.645Z,4365
2018-07-30T10:29:29.529Z,4356
2018-07-30T10:30:45.622Z,4361
2018-07-30T10:32:01.466Z,4337
2018-07-30T10:33:17.356Z,4345
2018-07-30T10:34:33.273Z,4359
2018-07-30T10:35:49.158Z,4325
2018-07-30T10:37:05.115Z,4300
2018-07-30T10:38:21.274Z,4343
2018-07-30T10:39:38.025Z,4340
2018-07-30T10:40:53.903Z,4341
2018-07-30T10:42:09.773Z,4335
2018-07-30T10:43:25.733Z,4327
2018-07-30T10:44:41.588Z,4358
2018-07-30T10:45:57.511Z,4365
2018-07-30T10:47:13.414Z,4368
2018-07-30T10:48:29.431Z,4363
2018-07-30T10:49:45.323Z,4350
2018-07-30T10:51:01.200Z,4385
2018-07-30T10:52:18.104Z,4370
2018-07-30T10:53:33.982Z,4408
2018-07-30T10:54:49.839Z,4392
2018-07-30T10:56:05.717Z,4412
2018-07-30T10:57:21.623Z,4418
2018-07-30T10:58:37.552Z,4423
2018-07-30T10:59:53.490Z,4439
2018-07-30T11:01:09.377Z,4453
2018-07-30T11:02:25.272Z,4416
2018-07-30T11:03:41.205Z,4470
2018-07-30T11:04:57.094Z,4472
2018-07-30T11:06:12.952Z,4483
2018-07-30T11:07:28.863Z,4499
2018-07-30T11:08:44.751Z,4510
2018-07-30T11:10:00.633Z,4517
2018-07-30T11:11:16.605Z,4531
2018-07-30T11:12:32.502Z,4595
2018-07-30T11:13:48.497Z,4575
2018-07-30T11:15:04.436Z,4613
2018-07-30T11:16:20.322Z,4627
2018-07-30T11:17:36.369Z,4624
2018-07-30T11:18:52.286Z,4613
2018-07-30T11:20:08.195Z,4637
2018-07-30T11:21:24.082Z,4623
2018-07-30T11:22:39.938Z,4619
2018-07-30T11:23:55.892Z,4626
2018-07-30T11:25:11.779Z,4633
2018-07-30T11:26:27.699Z,4613
2018-07-30T11:27:43.617Z,4628
2018-07-30T11:28:59.591Z,4608
2018-07-30T11:30:15.500Z,4647
2018-07-30T11:31:31.395Z,4660
2018-07-30T11:32:47.330Z,4652
2018-07-30T11:34:03.232Z,4634
2018-07-30T11:35:19.148Z,4646
2018-07-30T11:36:35.056Z,4635
2018-07-30T11:37:50.982Z,4639
2018-07-30T11:39:06.896Z,4644
2018-07-30T11:40:22.757Z,4664
2018-07-30T11:41:38.636Z,4682
2018-07-30T11:42:54.676Z,4678
2018-07-30T11:44:10.549Z,4665
2018-07-30T11:45:26.456Z,4684
2018-07-30T11:46:42.358Z,4700
2018-07-30T11:47:58.286Z,4689
2018-07-30T11:49:14.215Z,4687
2018-07-30T11:50:30.092Z,4687
2018-07-30T11:51:45.996Z,4688
2018-07-30T11:53:01.974Z,4671
2018-07-30T11:54:17.935Z,4684
2018-07-30T11:55:33.783Z,4671
2018-07-30T11:56:49.846Z,4661
2018-07-30T11:58:05.780Z,4692
2018-07-30T11:59:21.691Z,4673
2018-07-30T12:00:37.646Z,4653
2018-07-30T12:01:53.657Z,4690
2018-07-30T12:03:09.508Z,4702
2018-07-30T12:04:25.418Z,4707
2018-07-30T12:05:41.304Z,4696
2018-07-30T12:06:57.263Z,4751
2018-07-30T12:08:13.170Z,4757
2018-07-30T12:09:29.048Z,4751
2018-07-30T12:10:44.997Z,4798
2018-07-30T12:12:00.889Z,4787
2018-07-30T12:13:16.789Z,4779
2018-07-30T12:14:32.858Z,4809
2018-07-30T12:15:48.727Z,4833
2018-07-30T12:17:04.878Z,4851
2018-07-30T12:18:20.775Z,4887
2018-07-30T12:19:36.671Z,4904
2018-07-30T12:20:52.562Z,4966
2018-07-30T12:22:08.521Z,4995
2018-07-30T12:23:24.401Z,5059
2018-07-30T12:24:40.244Z,5088
2018-07-30T12:25:56.105Z,5129
2018-07-30T12:27:12.013Z,5165
2018-07-30T12:28:27.898Z,5194
2018-07-30T12:29:43.817Z,5215
2018-07-30T12:30:59.700Z,5257
2018-07-30T12:32:15.586Z,5316
2018-07-30T12:33:31.443Z,5361
2018-07-30T12:34:47.341Z,5386
2018-07-30T12:36:03.216Z,5426
2018-07-30T12:37:19.103Z,5424
2018-07-30T12:38:34.983Z,5457
2018-07-30T12:39:50.882Z,5493
2018-07-30T12:41:06.834Z,5498
2018-07-30T12:42:22.699Z,5536
2018-07-30T12:43:38.585Z,5555
2018-07-30T12:44:54.555Z,5575
2018-07-30T12:46:10.411Z,5597
2018-07-30T12:47:26.359Z,5618
2018-07-30T12:48:42.309Z,5650
2018-07-30T12:49:58.182Z,5624
2018-07-30T12:51:14.108Z,5635
2018-07-30T12:52:30.012Z,5677
2018-07-30T12:53:45.922Z,5692
2018-07-30T12:55:01.767Z,5710
2018-07-30T12:56:17.648Z,5719
2018-07-30T12:57:33.526Z,5739
2018-07-30T12:58:49.466Z,5769
2018-07-30T13:00:05.378Z,5753
2018-07-30T13:01:21.244Z,5780
2018-07-30T13:02:37.171Z,5774
2018-07-30T13:03:53.085Z,5791
2018-07-30T13:05:08.955Z,5793
2018-07-30T13:06:24.878Z,5820
2018-07-30T13:07:40.738Z,5831
2018-07-30T13:08:56.652Z,5842
2018-07-30T13:10:12.614Z,5864
2018-07-30T13:11:28.566Z,5872
2018-07-30T13:12:44.441Z,5890
2018-07-30T13:14:00.306Z,5882
2018-07-30T13:15:16.236Z,5895
2018-07-30T13:16:32.128Z,5931
2018-07-30T13:17:48.003Z,5919
2018-07-30T13:19:03.978Z,5937
2018-07-30T13:20:19.919Z,5908
2018-07-30T13:21:35.828Z,5910
2018-07-30T13:22:51.739Z,5920
2018-07-30T13:24:07.666Z,5916
2018-07-30T13:25:23.574Z,5885
2018-07-30T13:26:39.671Z,5918
2018-07-30T13:27:55.386Z,5899
2018-07-30T13:29:11.258Z,5941
2018-07-30T13:30:27.198Z,5948
2018-07-30T13:31:43.138Z,5949
2018-07-30T13:32:58.999Z,5975
2018-07-30T13:34:14.901Z,5980
2018-07-30T13:35:30.851Z,5998
2018-07-30T13:36:46.777Z,6010
2018-07-30T13:38:02.710Z,5994
2018-07-30T13:39:18.606Z,5999
2018-07-30T13:40:34.509Z,6000
2018-07-30T13:41:50.464Z,5988
2018-07-30T13:43:06.327Z,5960
2018-07-30T13:44:22.202Z,5951
2018-07-30T13:45:38.098Z,5934
2018-07-30T13:46:54.012Z,5903
2018-07-30T13:48:09.939Z,5888
2018-07-30T13:49:25.855Z,5812
2018-07-30T13:50:41.721Z,5851
2018-07-30T13:51:57.626Z,5848
2018-07-30T13:53:13.505Z,5852
2018-07-30T13:54:29.605Z,5853
2018-07-30T13:55:45.362Z,5822
2018-07-30T13:58:42.171Z,5822
2018-07-30T13:59:58.072Z,5797
2018-07-30T14:01:13.927Z,5809
2018-07-30T14:02:29.856Z,5763
2018-07-30T14:03:45.717Z,5788
2018-07-30T14:05:01.600Z,5827
2018-07-30T14:06:17.498Z,5821
2018-07-30T14:07:33.378Z,5823
2018-07-30T14:08:49.296Z,5823
2018-07-30T14:10:05.257Z,5814
2018-07-30T14:11:21.157Z,5769
2018-07-30T14:12:37.152Z,5810
2018-07-30T14:13:53.009Z,5795
2018-07-30T14:15:08.926Z,5781
2018-07-30T14:16:24.862Z,5749
2018-07-30T14:17:40.773Z,5809
2018-07-30T14:18:56.671Z,5793
2018-07-30T14:20:12.547Z,5783
2018-07-30T14:21:28.503Z,5771
2018-07-30T14:22:44.400Z,5731
2018-07-30T14:24:00.308Z,5751
2018-07-30T14:25:16.193Z,5720
2018-07-30T14:26:32.113Z,5683
2018-07-30T14:27:47.979Z,5679
2018-07-30T14:29:03.913Z,5636
2018-07-30T14:30:19.805Z,5644
2018-07-30T14:31:35.748Z,5645
2018-07-30T14:32:51.697Z,5611
2018-07-30T14:34:07.651Z,5621
2018-07-30T14:35:23.558Z,5601
2018-07-30T14:36:39.450Z,5592
2018-07-30T14:37:55.393Z,5586
2018-07-30T14:39:11.977Z,5585
2018-07-30T14:40:27.931Z,5565
2018-07-30T14:41:43.844Z,5576
2018-07-30T14:42:59.762Z,5551
2018-07-30T14:44:15.696Z,5547
2018-07-30T14:45:31.631Z,5538
2018-07-30T14:46:47.529Z,5541
2018-07-30T14:48:03.481Z,5509
2018-07-30T14:49:19.391Z,5483
2018-07-30T14:50:35.387Z,5423
2018-07-30T14:51:51.245Z,5444
2018-07-30T14:53:07.195Z,5364
2018-07-30T14:54:23.110Z,5364
2018-07-30T14:55:39.049Z,5361
2018-07-30T14:56:55.040Z,5331
2018-07-30T14:58:10.951Z,5312
2018-07-30T14:59:26.908Z,5295
2018-07-30T15:00:42.821Z,5254
2018-07-30T15:01:58.741Z,5230
2018-07-30T15:03:14.718Z,5200
2018-07-30T15:04:30.655Z,5202
2018-07-30T15:05:46.594Z,5163
2018-07-30T15:07:02.537Z,5137
2018-07-30T15:08:18.442Z,5128
2018-07-30T15:09:34.365Z,5110
2018-07-30T15:10:50.273Z,5096
2018-07-30T15:12:06.219Z,5052
2018-07-30T15:13:22.069Z,5041
2018-07-30T15:14:38.023Z,5029
2018-07-30T15:15:53.970Z,4989
2018-07-30T15:17:09.942Z,4987
2018-07-30T15:18:25.893Z,4972
2018-07-30T15:19:41.871Z,4939
2018-07-30T15:20:57.849Z,4932
2018-07-30T15:22:13.736Z,4903
2018-07-30T15:23:29.688Z,4884
2018-07-30T15:24:45.618Z,4853
2018-07-30T15:26:01.585Z,4826
2018-07-30T15:27:17.501Z,4794
2018-07-30T15:28:33.410Z,4788
2018-07-30T15:29:49.355Z,4771
2018-07-30T15:31:05.290Z,4742
2018-07-30T15:32:21.168Z,4724
2018-07-30T15:33:37.054Z,4701
2018-07-30T15:34:52.972Z,4697
2018-07-30T15:36:08.949Z,4686
2018-07-30T15:37:24.917Z,4667
2018-07-30T15:38:40.854Z,4593
2018-07-30T15:39:56.770Z,4625
2018-07-30T15:41:12.676Z,4598
2018-07-30T15:42:28.617Z,4580
2018-07-30T15:43:44.598Z,4544
2018-07-30T15:45:00.482Z,4526
2018-07-30T15:46:16.387Z,4499
2018-07-30T15:47:32.399Z,4471
2018-07-30T15:48:48.318Z,4467
2018-07-30T15:50:04.259Z,4420
2018-07-30T15:51:20.125Z,4378
2018-07-30T15:52:36.052Z,4380
2018-07-30T15:53:52.014Z,4341
2018-07-30T15:55:07.931Z,4329
2018-07-30T15:56:23.815Z,4312
2018-07-30T15:57:39.760Z,4287
2018-07-30T15:58:55.657Z,4247
2018-07-30T16:00:11.622Z,4240
2018-07-30T16:01:27.601Z,4212
2018-07-30T16:02:43.555Z,4193
2018-07-30T16:03:59.473Z,4156
2018-07-30T16:05:15.478Z,4133
2018-07-30T16:06:31.325Z,4078
2018-07-30T16:07:47.243Z,4065
2018-07-30T16:09:03.164Z,4048
2018-07-30T16:10:19.119Z,4026
2018-07-30T16:11:35.053Z,4000
2018-07-30T16:12:51.006Z,3973
2018-07-30T16:14:06.889Z,3943
2018-07-30T16:15:22.822Z,3929
2018-07-30T16:16:38.759Z,3905
2018-07-30T16:17:54.714Z,3870
2018-07-30T16:19:10.695Z,3850
2018-07-30T16:20:26.623Z,3820
2018-07-30T16:21:42.548Z,3790
2018-07-30T16:22:58.484Z,3762
2018-07-30T16:24:14.391Z,3729
2018-07-30T16:25:30.403Z,3687
2018-07-30T16:26:46.321Z,3663
2018-07-30T16:28:02.255Z,3624
2018-07-30T16:29:18.159Z,3590
2018-07-30T16:30:34.099Z,3538
2018-07-30T16:31:49.998Z,3516
2018-07-30T16:33:05.941Z,3478
2018-07-30T16:34:21.828Z,3451
2018-07-30T16:35:37.733Z,3419
2018-07-30T16:36:53.642Z,3375
2018-07-30T16:38:09.574Z,3335
2018-07-30T16:39:25.498Z,3299
2018-07-30T16:40:41.422Z,3267
2018-07-30T16:41:57.319Z,3237
2018-07-30T16:43:13.288Z,3197
2018-07-30T16:44:29.207Z,3169
2018-07-30T16:45:45.132Z,3144
2018-07-30T16:47:01.241Z,3113
2018-07-30T16:48:17.108Z,3097
2018-07-30T16:49:32.962Z,3060
2018-07-30T16:50:48.838Z,3035
2018-07-30T16:53:38.561Z,2972
2018-07-30T16:55:31.327Z,2936
2018-07-30T16:56:47.243Z,2916
2018-07-30T16:58:03.175Z,2887
2018-07-30T16:59:19.085Z,2855
2018-07-30T17:00:35.033Z,2825
2018-07-30T17:01:50.978Z,2804
2018-07-30T17:03:06.929Z,2778
2018-07-30T17:04:22.869Z,2751
2018-07-30T17:05:38.899Z,2720
2018-07-30T17:06:54.832Z,2691
2018-07-30T17:08:10.783Z,2654
2018-07-30T17:09:26.917Z,2618
2018-07-30T17:10:43.042Z,2565
2018-07-30T17:11:58.931Z,2367
2018-07-30T17:13:14.890Z,2287
2018-07-30T17:14:30.789Z,2339
2018-07-30T17:15:46.861Z,2295
2018-07-30T17:17:02.825Z,2180
2018-07-30T17:18:18.712Z,2153
2018-07-30T17:19:34.646Z,2101
2018-07-30T17:20:50.563Z,1916
2018-07-30T17:22:06.489Z,1732
2018-07-30T17:23:22.414Z,1604
2018-07-30T17:24:38.418Z,1539
2018-07-30T17:27:36.009Z,1590
2018-07-30T17:28:52.076Z,1368
2018-07-30T17:30:08.407Z,1576
2018-07-30T17:31:25.588Z,1534
2018-07-30T17:32:41.838Z,1498
2018-07-30T17:33:58.062Z,1481
2018-07-30T17:35:14.440Z,1452
2018-07-30T17:36:30.874Z,1489
2018-07-30T17:37:47.118Z,1566
2018-07-30T17:39:03.283Z,1568
2018-07-30T17:40:19.654Z,1588
2018-07-30T17:41:36.111Z,1610